createdAt,value
2023-03-17T08:05:25.479Z,18.26
2023-03-17T08:05:55.336Z,18.36
2023-03-17T08:06:23.833Z,18.17
2023-03-17T08:06:54.714Z,17.96
2023-03-17T08:07:24.989Z,17.74
2023-03-17T08:07:52.702Z,17.55
2023-03-17T08:08:23.668Z,17.45
2023-03-17T08:08:55.739Z,17.38
2023-03-17T09:59:46.369Z,19.52
2023-03-17T10:00:20.533Z,19.94
2023-03-17T10:00:52.553Z,20.01
2023-03-17T10:01:21.023Z,19.98
2023-03-17T10:01:49.210Z,19.97
2023-03-17T10:02:17.651Z,19.97
2023-03-17T10:02:46.829Z,19.98
2023-03-17T10:03:21.698Z,19.98
2023-03-17T10:03:49.173Z,19.95
2023-03-17T10:04:18.948Z,19.98
2023-03-17T10:04:48.733Z,20.01
2023-03-17T10:05:19.401Z,20.07
2023-03-17T10:05:50.707Z,20.15
2023-03-17T10:06:20.049Z,20.15
2023-03-17T10:06:48.318Z,20.19
2023-03-17T10:07:18.947Z,20.25
2023-03-17T10:07:47.004Z,20.26
2023-03-17T10:08:30.043Z,20.30
2023-03-17T10:11:27.757Z,20.33
2023-03-17T10:11:38.681Z,20.42
2023-03-17T10:12:05.675Z,20.42
2023-03-17T10:12:34.677Z,20.40
2023-03-17T10:13:04.344Z,20.40
2023-03-17T10:13:37.742Z,20.40
2023-03-17T10:14:03.402Z,20.37
2023-03-17T10:14:35.195Z,20.37
2023-03-17T10:15:04.164Z,20.33
2023-03-17T10:15:36.011Z,20.33
2023-03-17T10:16:03.681Z,20.30
2023-03-17T10:16:34.180Z,20.31
2023-03-17T10:17:04.993Z,20.33
2023-03-17T10:17:34.275Z,20.31
2023-03-17T10:18:03.112Z,20.31
2023-03-17T10:18:34.206Z,20.33
2023-03-17T10:19:06.746Z,20.33
2023-03-17T10:19:35.160Z,20.31
2023-03-17T10:20:02.861Z,20.31
2023-03-17T10:20:34.334Z,20.31
2023-03-17T10:21:07.942Z,20.33
2023-03-17T10:21:36.641Z,20.33
2023-03-17T10:22:05.661Z,20.33
2023-03-17T10:22:36.162Z,20.31
2023-03-17T10:23:04.232Z,20.33
2023-03-17T10:23:35.025Z,20.31
2023-03-17T10:24:04.829Z,20.33
2023-03-17T10:24:37.424Z,20.31
2023-03-17T10:25:36.093Z,20.26
2023-03-17T10:26:34.366Z,20.23
